createdAt,value
2023-01-26T00:00:20.198Z,28.48
2023-01-26T00:01:24.499Z,28.58
2023-01-26T00:02:25.999Z,26.75
2023-01-26T00:03:27.932Z,27.45
2023-01-26T00:04:29.382Z,28.33
2023-01-26T00:05:30.792Z,25.40
2023-01-26T00:06:32.541Z,28.95
2023-01-26T00:07:33.967Z,28.92
2023-01-26T00:08:43.462Z,27.10
2023-01-26T00:09:44.883Z,27.35
2023-01-26T00:10:50.348Z,29.25
2023-01-26T00:11:51.858Z,28.08
2023-01-26T00:12:53.304Z,26.42
2023-01-26T00:13:59.083Z,29.23
2023-01-26T00:15:00.516Z,28.15
2023-01-26T00:16:03.005Z,28.27
2023-01-26T00:17:04.764Z,27.35
2023-01-26T00:18:06.205Z,25.73
2023-01-26T00:19:08.234Z,27.13
2023-01-26T00:20:10.687Z,27.42
2023-01-26T00:21:15.531Z,25.75
2023-01-26T00:22:16.962Z,25.60
2023-01-26T00:23:18.360Z,26.88
2023-01-26T00:24:19.788Z,28.63
2023-01-26T00:25:21.964Z,26.33
2023-01-26T00:26:26.935Z,26.85
2023-01-26T00:27:28.426Z,26.60
2023-01-26T00:28:29.940Z,28.80
2023-01-26T00:29:31.368Z,30.95
2023-01-26T00:30:33.023Z,27.20
2023-01-26T00:31:34.894Z,26.85
2023-01-26T00:32:36.825Z,29.90
2023-01-26T00:33:38.369Z,27.80
2023-01-26T00:34:39.817Z,32.22
2023-01-26T00:35:44.637Z,28.75
2023-01-26T00:36:46.184Z,28.98
2023-01-26T00:37:47.629Z,31.17
2023-01-26T00:38:49.222Z,29.20
2023-01-26T00:39:50.654Z,31.70
2023-01-26T00:40:52.118Z,31.30
2023-01-26T00:42:10.266Z,28.10
2023-01-26T00:43:11.740Z,25.00
2023-01-26T00:44:13.179Z,30.88
2023-01-26T00:45:14.612Z,27.42
2023-01-26T00:46:16.438Z,27.73
2023-01-26T00:47:18.877Z,29.73
2023-01-26T00:48:21.905Z,30.77
2023-01-26T00:49:24.416Z,28.80
2023-01-26T00:50:26.039Z,29.35
2023-01-26T00:51:28.270Z,29.27
2023-01-26T00:52:29.774Z,27.38
2023-01-26T00:53:31.378Z,26.17
2023-01-26T00:54:33.236Z,27.10
2023-01-26T00:55:34.696Z,29.40
2023-01-26T00:56:36.537Z,27.92
2023-01-26T00:57:38.020Z,26.15
2023-01-26T00:58:40.595Z,26.88
2023-01-26T00:59:42.112Z,25.90
2023-01-26T01:00:43.623Z,29.17
2023-01-26T01:01:45.277Z,25.55
2023-01-26T01:02:46.778Z,29.70
2023-01-26T01:03:50.342Z,28.30
2023-01-26T01:04:51.759Z,28.35
2023-01-26T01:05:53.202Z,27.90
2023-01-26T01:06:54.703Z,29.35
2023-01-26T01:07:56.423Z,29.05
2023-01-26T01:08:58.152Z,28.73
2023-01-26T01:10:00.481Z,26.33
2023-01-26T01:11:06.879Z,29.05
2023-01-26T01:12:08.501Z,29.40
2023-01-26T01:13:10.268Z,30.95
2023-01-26T01:14:13.504Z,29.48
2023-01-26T01:15:15.797Z,25.77
2023-01-26T01:16:17.416Z,24.95
2023-01-26T01:17:18.979Z,28.98
2023-01-26T01:18:20.433Z,28.02
2023-01-26T01:19:21.945Z,27.60
2023-01-26T01:20:23.407Z,27.42
2023-01-26T01:21:25.710Z,26.83
2023-01-26T01:22:27.150Z,28.38
2023-01-26T01:23:29.262Z,28.02
2023-01-26T01:24:30.712Z,31.25
2023-01-26T01:25:32.700Z,28.95
2023-01-26T01:26:34.198Z,28.92
2023-01-26T01:27:37.204Z,25.85
2023-01-26T01:28:38.888Z,25.77
2023-01-26T01:29:40.378Z,26.77
2023-01-26T01:30:42.120Z,27.48
2023-01-26T01:31:43.763Z,25.98
2023-01-26T01:32:46.022Z,26.02
2023-01-26T01:33:47.572Z,25.92
2023-01-26T01:34:52.280Z,24.95
2023-01-26T01:35:57.460Z,24.13
2023-01-26T01:36:58.872Z,25.98
2023-01-26T01:38:00.313Z,25.33
2023-01-26T01:39:01.748Z,26.20
2023-01-26T01:40:03.541Z,29.00
2023-01-26T01:41:05.889Z,26.98
2023-01-26T01:42:07.344Z,25.15
2023-01-26T01:43:11.899Z,25.92
2023-01-26T01:44:22.189Z,25.23
2023-01-26T01:45:26.916Z,27.85
2023-01-26T01:46:35.643Z,23.85
2023-01-26T01:47:37.317Z,30.73
2023-01-26T01:48:54.950Z,24.98
2023-01-26T01:49:56.737Z,25.15
2023-01-26T01:51:03.318Z,25.10
2023-01-26T01:52:36.958Z,23.95
2023-01-26T01:53:44.799Z,26.38
2023-01-26T01:55:09.248Z,24.63
2023-01-26T01:56:21.608Z,24.40
2023-01-26T01:57:31.311Z,22.83
2023-01-26T01:58:36.060Z,25.25
2023-01-26T01:59:37.535Z,24.48
2023-01-26T02:00:39.381Z,28.77
2023-01-26T02:01:41.935Z,26.65
2023-01-26T02:03:05.853Z,24.92
2023-01-26T02:04:08.041Z,25.58
2023-01-26T02:05:33.690Z,23.30
2023-01-26T02:06:41.180Z,25.05
2023-01-26T02:07:43.872Z,26.55
2023-01-26T02:08:48.567Z,26.50
2023-01-26T02:10:09.104Z,23.45
2023-01-26T02:11:16.470Z,23.75
2023-01-26T02:12:21.931Z,25.10
2023-01-26T02:13:24.641Z,23.60
2023-01-26T02:14:27.626Z,24.50
2023-01-26T02:15:30.612Z,23.80
2023-01-26T02:16:32.302Z,26.10
2023-01-26T02:17:33.855Z,24.33
2023-01-26T02:18:35.284Z,25.50
2023-01-26T02:20:04.469Z,23.67
2023-01-26T02:21:09.266Z,22.70
2023-01-26T02:22:21.397Z,23.60
2023-01-26T02:23:31.786Z,22.42
2023-01-26T02:24:36.311Z,23.13
2023-01-26T02:25:57.572Z,24.17
2023-01-26T02:26:59.441Z,23.80
2023-01-26T02:28:01.377Z,26.15
2023-01-26T02:29:05.493Z,24.48
2023-01-26T02:30:08.680Z,20.75
2023-01-26T02:31:11.736Z,23.92
2023-01-26T02:32:13.295Z,23.70
2023-01-26T02:33:19.185Z,23.05
2023-01-26T02:34:20.934Z,23.58
2023-01-26T02:35:22.464Z,22.48
2023-01-26T02:36:27.750Z,20.38
2023-01-26T02:37:29.284Z,23.58
2023-01-26T02:38:39.232Z,21.85
2023-01-26T02:39:59.889Z,21.80
2023-01-26T02:41:40.467Z,21.85
2023-01-26T02:42:43.421Z,18.60
2023-01-26T02:43:45.079Z,19.77
2023-01-26T02:44:46.553Z,18.85
2023-01-26T02:45:48.284Z,20.42
2023-01-26T02:46:49.742Z,20.23
2023-01-26T02:47:51.321Z,20.15
2023-01-26T02:49:11.192Z,19.40
2023-01-26T02:50:13.255Z,20.50
2023-01-26T02:51:15.256Z,17.45
2023-01-26T02:52:22.214Z,18.95
2023-01-26T02:53:23.653Z,16.80
2023-01-26T02:54:43.644Z,19.05
2023-01-26T02:55:45.398Z,16.75
2023-01-26T02:56:46.827Z,18.75
2023-01-26T02:57:50.405Z,17.58
2023-01-26T02:58:51.823Z,17.83
2023-01-26T02:59:53.273Z,19.75
2023-01-26T03:00:54.783Z,16.08
2023-01-26T03:01:58.126Z,16.58
2023-01-26T03:03:01.436Z,17.02
2023-01-26T03:04:02.907Z,18.65
2023-01-26T03:05:08.999Z,18.17
2023-01-26T03:06:13.062Z,17.40
2023-01-26T03:07:14.463Z,16.65
2023-01-26T03:08:16.045Z,17.75
2023-01-26T03:09:17.486Z,17.35
2023-01-26T03:10:19.087Z,17.85
2023-01-26T03:11:21.077Z,19.30
2023-01-26T03:12:22.492Z,17.17
2023-01-26T03:13:23.926Z,18.52
2023-01-26T03:14:25.398Z,18.02
2023-01-26T03:15:46.282Z,17.85
2023-01-26T03:16:47.713Z,16.20
2023-01-26T03:17:49.176Z,18.65
2023-01-26T03:19:05.613Z,18.30
2023-01-26T03:20:26.335Z,15.00
2023-01-26T03:21:46.521Z,15.80
2023-01-26T03:23:13.909Z,16.35
2023-01-26T03:24:34.567Z,18.83
2023-01-26T03:25:55.592Z,17.40
2023-01-26T03:27:15.528Z,18.00
2023-01-26T03:28:22.512Z,16.98
2023-01-26T03:29:27.090Z,15.75
2023-01-26T03:30:28.547Z,17.55
2023-01-26T03:31:30.165Z,18.25
2023-01-26T03:32:31.811Z,20.35
2023-01-26T03:33:33.224Z,19.45
2023-01-26T03:34:34.807Z,17.60
2023-01-26T03:35:36.245Z,17.75
2023-01-26T03:36:38.091Z,17.80
2023-01-26T03:37:43.551Z,18.05
2023-01-26T03:38:45.005Z,19.08
2023-01-26T03:40:05.347Z,21.88
2023-01-26T03:41:25.453Z,19.45
2023-01-26T03:42:45.457Z,19.33
2023-01-26T03:44:05.297Z,19.67
2023-01-26T03:45:26.592Z,17.17
2023-01-26T03:46:46.311Z,19.52
2023-01-26T03:48:06.178Z,16.65
2023-01-26T03:49:26.359Z,17.48
2023-01-26T03:50:46.398Z,16.25
2023-01-26T03:52:06.642Z,18.40
2023-01-26T03:53:35.038Z,19.65
2023-01-26T03:54:54.804Z,64.22
2023-01-26T03:56:14.720Z,63.70
2023-01-26T03:57:16.183Z,82.18
2023-01-26T03:58:17.635Z,76.70
2023-01-26T03:59:37.997Z,56.60
2023-01-26T04:00:39.828Z,40.33
2023-01-26T04:02:03.511Z,28.60
2023-01-26T04:03:23.694Z,24.60
2023-01-26T04:04:43.566Z,20.17
2023-01-26T04:06:15.720Z,20.70
2023-01-26T04:07:37.079Z,16.02
2023-01-26T04:08:38.487Z,16.83
2023-01-26T04:09:39.921Z,16.85
2023-01-26T04:10:41.369Z,16.65
2023-01-26T04:11:43.790Z,15.10
2023-01-26T04:12:45.547Z,17.33
2023-01-26T04:14:06.318Z,16.10
2023-01-26T04:15:26.580Z,16.33
2023-01-26T04:16:48.299Z,17.05
2023-01-26T04:18:08.609Z,17.27
2023-01-26T04:19:28.794Z,16.77
2023-01-26T04:20:48.540Z,14.98
2023-01-26T04:21:49.975Z,16.00
2023-01-26T04:22:51.438Z,19.08
2023-01-26T04:23:56.546Z,18.50
2023-01-26T04:24:58.224Z,16.23
2023-01-26T04:25:59.856Z,15.23
2023-01-26T04:27:01.282Z,16.92
2023-01-26T04:28:02.700Z,17.92
2023-01-26T04:29:06.773Z,16.40
2023-01-26T04:30:11.443Z,16.88
2023-01-26T04:31:13.213Z,17.05
2023-01-26T04:32:15.622Z,18.17
2023-01-26T04:33:17.020Z,18.02
2023-01-26T04:34:18.516Z,16.05
2023-01-26T04:35:19.980Z,18.00
2023-01-26T04:36:21.442Z,16.60
2023-01-26T04:37:23.401Z,16.92
2023-01-26T04:38:24.825Z,16.67
2023-01-26T04:39:26.351Z,15.27
2023-01-26T04:40:27.779Z,17.58
2023-01-26T04:41:31.015Z,18.00
2023-01-26T04:42:32.485Z,17.45
2023-01-26T04:43:34.368Z,16.98
2023-01-26T04:44:35.803Z,16.23
2023-01-26T04:45:37.300Z,17.02
2023-01-26T04:46:38.788Z,16.52
2023-01-26T04:47:40.283Z,18.13
2023-01-26T04:48:42.574Z,17.95
2023-01-26T04:49:44.239Z,18.88
2023-01-26T04:50:45.651Z,19.08
2023-01-26T04:51:47.155Z,19.88
2023-01-26T04:52:48.662Z,17.48
2023-01-26T04:53:50.935Z,18.08
2023-01-26T04:54:52.369Z,19.55
2023-01-26T04:55:54.164Z,19.45
2023-01-26T04:56:55.602Z,16.63
2023-01-26T04:57:58.390Z,18.25
2023-01-26T04:59:02.643Z,17.80
2023-01-26T05:00:05.460Z,18.17
2023-01-26T05:01:06.929Z,19.40
2023-01-26T05:02:09.215Z,20.45
2023-01-26T05:03:10.756Z,19.05
2023-01-26T05:04:15.726Z,19.10
2023-01-26T05:05:17.283Z,22.88
2023-01-26T05:06:19.198Z,20.95
2023-01-26T05:07:20.629Z,19.13
2023-01-26T05:08:22.932Z,23.30
2023-01-26T05:09:24.341Z,23.55
2023-01-26T05:10:26.337Z,20.33
2023-01-26T05:11:27.803Z,21.92
2023-01-26T05:12:35.627Z,21.85
2023-01-26T05:13:37.399Z,22.00
2023-01-26T05:14:39.326Z,19.70
2023-01-26T05:15:41.553Z,22.05
2023-01-26T05:16:43.551Z,21.88
2023-01-26T05:17:45.196Z,21.48
2023-01-26T05:18:46.651Z,22.20
2023-01-26T05:19:48.084Z,23.13
2023-01-26T05:20:50.014Z,23.80
2023-01-26T05:21:51.445Z,23.35
2023-01-26T05:22:53.092Z,23.25
2023-01-26T05:23:55.226Z,25.55
2023-01-26T05:24:56.645Z,22.90
2023-01-26T05:25:58.112Z,21.50
2023-01-26T05:27:18.840Z,22.90
2023-01-26T05:28:20.257Z,26.60
2023-01-26T05:29:21.683Z,22.55
2023-01-26T05:30:23.196Z,23.00
2023-01-26T05:31:25.221Z,22.50
2023-01-26T05:32:28.037Z,23.90
2023-01-26T05:33:29.669Z,24.25
2023-01-26T05:34:31.103Z,22.65
2023-01-26T05:35:33.078Z,22.35
2023-01-26T05:36:34.543Z,24.23
2023-01-26T05:37:36.048Z,21.17
2023-01-26T05:38:37.461Z,23.05
2023-01-26T05:39:38.972Z,21.20
2023-01-26T05:40:41.057Z,24.60
2023-01-26T05:41:42.502Z,22.92
2023-01-26T05:42:44.081Z,23.58
2023-01-26T05:43:45.568Z,23.55
2023-01-26T05:44:47.139Z,21.65
2023-01-26T05:45:49.298Z,22.27
2023-01-26T05:46:51.566Z,23.90
2023-01-26T05:47:53.045Z,22.52
2023-01-26T05:48:54.500Z,23.77
2023-01-26T05:49:55.995Z,24.27
2023-01-26T05:50:58.575Z,22.55
2023-01-26T05:52:00.052Z,20.85
2023-01-26T05:53:03.034Z,21.75
2023-01-26T05:54:04.822Z,22.95
2023-01-26T05:55:07.116Z,22.73
2023-01-26T05:56:08.585Z,22.95
2023-01-26T05:57:11.689Z,23.25
2023-01-26T05:59:15.092Z,22.23
2023-01-26T06:00:18.141Z,21.63
2023-01-26T06:02:21.507Z,21.23
2023-01-26T06:03:23.941Z,20.90
2023-01-26T06:04:26.246Z,24.42
2023-01-26T06:05:27.740Z,23.75
2023-01-26T06:06:29.729Z,24.05
2023-01-26T06:07:31.717Z,22.13
2023-01-26T06:08:33.192Z,24.65
2023-01-26T06:09:34.621Z,21.48
2023-01-26T06:10:36.063Z,22.05
2023-01-26T06:11:37.952Z,22.38
2023-01-26T06:12:39.750Z,20.08
2023-01-26T06:13:41.161Z,21.90
2023-01-26T06:14:42.736Z,20.38
2023-01-26T06:15:44.143Z,23.00
2023-01-26T06:16:45.645Z,20.98
2023-01-26T06:17:47.549Z,24.33
2023-01-26T06:18:49.809Z,20.73
2023-01-26T06:19:51.706Z,22.67
2023-01-26T06:20:53.266Z,21.63
2023-01-26T06:21:54.798Z,23.73
2023-01-26T06:22:59.769Z,24.95
2023-01-26T06:24:01.836Z,24.63
2023-01-26T06:25:03.476Z,23.33
2023-01-26T06:26:06.317Z,22.80
2023-01-26T06:27:13.484Z,22.10
2023-01-26T06:28:14.888Z,24.08
2023-01-26T06:29:17.118Z,23.85
2023-01-26T06:30:18.636Z,24.40
2023-01-26T06:31:21.109Z,23.58
2023-01-26T06:32:22.571Z,23.63
2023-01-26T06:33:24.045Z,20.67
2023-01-26T06:34:25.842Z,22.55
2023-01-26T06:35:27.459Z,24.77
2023-01-26T06:36:29.003Z,22.05
2023-01-26T06:37:30.917Z,24.35
2023-01-26T06:38:32.656Z,22.67
2023-01-26T06:39:34.260Z,23.05
2023-01-26T06:40:35.717Z,23.33
2023-01-26T06:41:37.864Z,22.15
2023-01-26T06:42:39.286Z,24.55
2023-01-26T06:43:45.287Z,23.35
2023-01-26T06:44:46.806Z,25.10
2023-01-26T06:45:49.689Z,20.30
2023-01-26T06:46:51.755Z,22.50
2023-01-26T06:47:53.301Z,23.08
2023-01-26T06:48:54.756Z,21.40
2023-01-26T06:49:57.085Z,23.88
2023-01-26T06:51:17.863Z,22.45
2023-01-26T06:52:26.205Z,23.15
2023-01-26T06:53:42.817Z,21.20
2023-01-26T06:54:44.269Z,19.23
2023-01-26T06:55:46.391Z,20.02
2023-01-26T06:56:47.864Z,20.95
2023-01-26T06:57:49.476Z,23.75
2023-01-26T06:58:51.319Z,24.52
2023-01-26T06:59:52.832Z,21.65
2023-01-26T07:00:55.660Z,20.30
2023-01-26T07:01:57.115Z,20.95
2023-01-26T07:02:59.026Z,22.10
2023-01-26T07:04:00.933Z,25.85
2023-01-26T07:05:02.950Z,22.63
2023-01-26T07:06:05.922Z,21.63
2023-01-26T07:07:08.202Z,21.90
2023-01-26T07:08:09.734Z,20.23
2023-01-26T07:09:12.027Z,20.65
2023-01-26T07:10:13.624Z,19.15
2023-01-26T07:11:16.156Z,23.50
2023-01-26T07:12:17.609Z,20.80
2023-01-26T07:13:19.059Z,21.02
2023-01-26T07:14:20.459Z,21.83
2023-01-26T07:15:22.514Z,22.75
2023-01-26T07:16:24.109Z,19.90
2023-01-26T07:17:25.529Z,18.95
2023-01-26T07:18:26.965Z,18.48
2023-01-26T07:19:30.383Z,21.63
2023-01-26T07:20:31.906Z,21.17
2023-01-26T07:21:35.423Z,22.63
2023-01-26T07:22:36.869Z,19.67
2023-01-26T07:23:39.029Z,17.85
2023-01-26T07:24:40.964Z,19.65
2023-01-26T07:25:44.201Z,18.77
2023-01-26T07:26:45.637Z,19.17
2023-01-26T07:27:47.062Z,18.08
2023-01-26T07:28:48.529Z,20.75
2023-01-26T07:29:51.310Z,20.05
2023-01-26T07:30:56.993Z,21.33
2023-01-26T07:31:58.566Z,21.77
2023-01-26T07:33:00.605Z,19.33
2023-01-26T07:34:02.193Z,18.58
2023-01-26T07:35:04.771Z,21.13
2023-01-26T07:36:06.708Z,18.95
2023-01-26T07:37:08.119Z,21.45
2023-01-26T07:38:09.595Z,20.05
2023-01-26T07:39:11.846Z,20.90
2023-01-26T07:40:13.666Z,20.23
2023-01-26T07:41:15.305Z,21.73
2023-01-26T07:42:16.781Z,20.10
2023-01-26T07:43:18.476Z,19.98
2023-01-26T07:44:19.895Z,17.15
2023-01-26T07:45:21.406Z,19.85
2023-01-26T07:46:23.503Z,17.42
2023-01-26T07:47:24.956Z,18.02
2023-01-26T07:48:26.394Z,18.65
2023-01-26T07:49:27.942Z,17.65
2023-01-26T07:50:29.419Z,22.73
2023-01-26T07:51:30.828Z,19.48
2023-01-26T07:52:32.264Z,21.70
2023-01-26T07:53:37.628Z,21.27
2023-01-26T07:54:39.275Z,20.73
2023-01-26T07:55:43.776Z,20.92
2023-01-26T07:56:45.248Z,17.67
2023-01-26T07:57:49.810Z,17.38
2023-01-26T07:58:52.779Z,19.20
2023-01-26T07:59:54.627Z,20.55
2023-01-26T08:00:57.539Z,19.63
2023-01-26T08:01:58.993Z,20.13
2023-01-26T08:03:00.470Z,18.77
2023-01-26T08:04:01.941Z,18.58
2023-01-26T08:05:03.474Z,17.60
2023-01-26T08:06:06.051Z,18.65
2023-01-26T08:07:08.255Z,18.17
2023-01-26T08:08:10.007Z,18.85
2023-01-26T08:09:11.494Z,18.17
2023-01-26T08:10:14.551Z,18.42
2023-01-26T08:12:18.227Z,19.40
2023-01-26T08:13:33.784Z,20.00
2023-01-26T08:14:46.398Z,17.25
2023-01-26T08:15:48.941Z,19.58
2023-01-26T08:16:50.387Z,20.15
2023-01-26T08:17:54.616Z,17.95
2023-01-26T08:18:56.163Z,20.92
2023-01-26T08:19:57.605Z,18.02
2023-01-26T08:20:59.051Z,17.20
2023-01-26T08:22:00.699Z,20.15
2023-01-26T08:23:02.172Z,18.23
2023-01-26T08:24:03.906Z,18.35
2023-01-26T08:25:05.871Z,18.52
2023-01-26T08:26:12.574Z,19.92
2023-01-26T08:27:16.096Z,19.58
2023-01-26T08:28:18.578Z,18.90
2023-01-26T08:29:21.393Z,18.55
2023-01-26T08:30:22.837Z,16.70
2023-01-26T08:31:25.487Z,18.48
2023-01-26T08:32:30.129Z,16.65
2023-01-26T08:33:32.400Z,18.08
2023-01-26T08:34:33.816Z,18.98
2023-01-26T08:35:35.467Z,17.45
2023-01-26T08:36:38.516Z,19.60
2023-01-26T08:39:43.559Z,16.15
2023-01-26T08:40:45.073Z,17.42
2023-01-26T08:41:47.068Z,16.08
2023-01-26T08:42:48.516Z,17.70
2023-01-26T08:43:51.232Z,15.20
2023-01-26T08:44:52.647Z,15.35
2023-01-26T08:45:54.340Z,14.23
2023-01-26T08:46:55.773Z,16.20
2023-01-26T08:47:57.232Z,13.60
2023-01-26T08:49:00.418Z,15.52
2023-01-26T08:50:02.081Z,14.40
2023-01-26T08:51:05.521Z,14.45
2023-01-26T08:52:06.961Z,13.95
2023-01-26T08:53:08.387Z,13.45
2023-01-26T08:54:10.266Z,13.77
2023-01-26T08:55:12.007Z,13.10
2023-01-26T08:56:13.771Z,14.82
2023-01-26T08:57:15.200Z,13.07
2023-01-26T08:58:17.149Z,15.60
2023-01-26T08:59:19.064Z,13.40
2023-01-26T09:00:21.561Z,11.40
2023-01-26T09:01:23.004Z,13.07
2023-01-26T09:02:24.653Z,11.63
2023-01-26T09:03:26.163Z,12.23
2023-01-26T09:04:27.658Z,12.35
2023-01-26T09:05:32.888Z,11.95
2023-01-26T09:06:34.376Z,12.35
2023-01-26T09:07:36.169Z,12.63
2023-01-26T09:08:37.647Z,10.02
2023-01-26T09:09:39.060Z,11.50
2023-01-26T09:10:40.599Z,12.15
2023-01-26T09:11:42.153Z,12.73
2023-01-26T09:12:43.548Z,11.88
2023-01-26T09:13:45.044Z,11.90
2023-01-26T09:14:46.483Z,12.15
2023-01-26T09:15:48.515Z,12.27
2023-01-26T09:16:50.010Z,14.25
2023-01-26T09:17:52.312Z,13.90
2023-01-26T09:18:54.029Z,16.25
2023-01-26T09:19:55.531Z,14.15
2023-01-26T09:21:02.892Z,16.30
2023-01-26T09:22:04.625Z,14.43
2023-01-26T09:23:06.695Z,15.25
2023-01-26T09:24:08.509Z,17.48
2023-01-26T09:25:10.713Z,16.17
2023-01-26T09:26:12.594Z,14.55
2023-01-26T09:27:14.157Z,15.48
2023-01-26T09:28:15.527Z,12.80
2023-01-26T09:29:16.899Z,14.40
2023-01-26T09:30:18.374Z,14.38
2023-01-26T09:31:20.161Z,15.43
2023-01-26T09:32:22.685Z,14.35
2023-01-26T09:33:25.357Z,15.10
2023-01-26T09:34:27.068Z,15.98
2023-01-26T09:35:29.936Z,14.07
2023-01-26T09:36:31.473Z,12.93
2023-01-26T09:37:32.904Z,14.20
2023-01-26T09:38:34.441Z,14.90
2023-01-26T09:39:35.876Z,14.68
2023-01-26T09:40:50.976Z,14.10
2023-01-26T09:42:11.082Z,15.90
2023-01-26T09:43:25.751Z,15.45
2023-01-26T09:44:31.411Z,13.23
2023-01-26T09:45:54.744Z,13.63
2023-01-26T09:47:09.420Z,13.70
2023-01-26T09:48:35.231Z,13.45
2023-01-26T09:49:52.423Z,13.43
2023-01-26T09:51:10.623Z,14.15
2023-01-26T09:52:26.574Z,13.43
2023-01-26T09:54:01.463Z,13.25
2023-01-26T09:55:15.249Z,13.20
2023-01-26T09:56:22.429Z,15.00
2023-01-26T09:57:37.552Z,13.07
2023-01-26T09:58:40.732Z,11.98
2023-01-26T09:59:57.213Z,12.55
2023-01-26T10:01:02.376Z,12.80
2023-01-26T10:02:22.404Z,13.60
2023-01-26T10:03:35.286Z,12.68
2023-01-26T10:04:40.611Z,14.52
2023-01-26T10:05:45.815Z,14.32
2023-01-26T10:06:47.948Z,16.52
2023-01-26T10:07:49.941Z,16.23
2023-01-26T10:08:51.475Z,15.73
2023-01-26T10:09:53.925Z,17.13
2023-01-26T10:11:02.776Z,15.07
2023-01-26T10:12:26.876Z,17.17
2023-01-26T10:13:29.896Z,17.90
2023-01-26T10:14:37.450Z,15.13
2023-01-26T10:15:43.254Z,16.08
2023-01-26T10:16:48.523Z,18.50
2023-01-26T10:17:50.949Z,19.02
2023-01-26T10:18:55.990Z,15.05
2023-01-26T10:20:12.458Z,16.58
2023-01-26T10:21:15.846Z,16.85
2023-01-26T10:22:27.328Z,16.65
2023-01-26T10:23:31.505Z,15.00
2023-01-26T10:24:34.600Z,18.13
2023-01-26T10:26:42.035Z,18.52
2023-01-26T10:27:46.010Z,17.27
2023-01-26T10:28:50.633Z,16.38
2023-01-26T10:29:52.093Z,18.00
2023-01-26T10:30:54.046Z,17.83
2023-01-26T10:31:55.666Z,19.75
2023-01-26T10:32:57.355Z,17.30
2023-01-26T10:34:03.268Z,17.60
2023-01-26T10:35:05.063Z,20.55
2023-01-26T10:36:07.862Z,20.45
2023-01-26T10:37:21.504Z,18.60
2023-01-26T10:38:40.141Z,19.77
2023-01-26T10:39:58.002Z,20.45
2023-01-26T10:41:19.269Z,23.67
2023-01-26T10:42:27.851Z,22.08
2023-01-26T10:43:35.925Z,20.60
2023-01-26T10:44:39.393Z,20.48
2023-01-26T10:45:46.330Z,22.13
2023-01-26T10:47:03.568Z,20.27
2023-01-26T10:48:26.573Z,22.08
2023-01-26T10:49:28.471Z,21.90
2023-01-26T10:50:31.963Z,25.45
2023-01-26T10:51:35.601Z,20.13
2023-01-26T10:52:37.160Z,32.83
2023-01-26T10:53:38.612Z,28.17
2023-01-26T10:54:44.100Z,33.33
2023-01-26T10:56:17.809Z,42.95
2023-01-26T10:57:30.731Z,55.15
2023-01-26T10:58:44.429Z,65.85
2023-01-26T10:59:57.874Z,51.42
2023-01-26T11:00:59.264Z,43.08
2023-01-26T11:02:21.984Z,26.02
2023-01-26T11:03:27.732Z,43.10
2023-01-26T11:04:29.780Z,50.08
2023-01-26T11:05:31.434Z,63.70
2023-01-26T11:06:33.672Z,29.60
2023-01-26T11:07:40.438Z,34.90
2023-01-26T11:08:42.588Z,59.03
2023-01-26T11:09:44.022Z,33.67
2023-01-26T11:10:53.420Z,28.13
2023-01-26T11:12:07.883Z,27.08
2023-01-26T11:13:19.285Z,26.85
2023-01-26T11:14:20.931Z,26.60
2023-01-26T11:15:25.026Z,21.23
2023-01-26T11:16:28.034Z,25.55
2023-01-26T11:17:45.045Z,27.67
2023-01-26T11:19:13.549Z,24.55
2023-01-26T11:20:18.067Z,26.00
2023-01-26T11:21:28.962Z,23.80
2023-01-26T11:22:51.739Z,26.10
2023-01-26T11:24:05.373Z,26.85
2023-01-26T11:25:27.212Z,25.45
2023-01-26T11:26:28.678Z,26.60
2023-01-26T11:27:40.255Z,22.60
2023-01-26T11:28:53.527Z,21.25
2023-01-26T11:30:16.996Z,23.48
2023-01-26T11:31:45.899Z,22.60
2023-01-26T11:33:18.277Z,25.15
2023-01-26T11:34:33.181Z,23.08
2023-01-26T11:35:40.720Z,23.85
2023-01-26T11:36:59.376Z,26.65
2023-01-26T11:38:29.638Z,24.50
2023-01-26T11:39:46.251Z,23.50
2023-01-26T11:41:05.865Z,25.05
2023-01-26T11:42:29.052Z,24.10
2023-01-26T11:44:12.309Z,22.35
2023-01-26T11:45:20.300Z,22.27
2023-01-26T11:46:59.416Z,26.25
2023-01-26T11:48:17.001Z,25.23
2023-01-26T11:49:36.540Z,26.70
2023-01-26T11:51:18.639Z,25.27
2023-01-26T11:52:27.885Z,22.95
2023-01-26T11:55:00.430Z,23.15
2023-01-26T11:56:07.910Z,26.60
2023-01-26T11:57:15.192Z,26.55
2023-01-26T11:58:31.828Z,25.02
2023-01-26T11:59:39.298Z,25.65
2023-01-26T12:00:45.639Z,21.50
2023-01-26T12:02:05.383Z,22.83
2023-01-26T12:03:19.073Z,23.60
2023-01-26T12:04:22.292Z,22.52
2023-01-26T12:05:28.886Z,27.52
2023-01-26T12:06:40.186Z,23.30
2023-01-26T12:07:55.342Z,27.20
2023-01-26T12:09:22.838Z,25.73
2023-01-26T12:10:33.164Z,34.63
2023-01-26T12:11:48.360Z,72.57
2023-01-26T12:12:58.303Z,48.28
2023-01-26T12:14:02.591Z,43.15
2023-01-26T12:15:12.209Z,57.10
2023-01-26T12:16:23.024Z,48.47
2023-01-26T12:17:42.505Z,31.60
2023-01-26T12:19:09.192Z,26.13
2023-01-26T12:20:55.501Z,26.63
2023-01-26T12:22:05.313Z,23.50
2023-01-26T12:23:15.823Z,22.73
2023-01-26T12:24:54.322Z,19.45
2023-01-26T12:26:12.191Z,22.90
2023-01-26T12:27:31.191Z,22.77
2023-01-26T12:28:44.888Z,22.67
2023-01-26T12:30:04.548Z,20.05
2023-01-26T12:31:18.175Z,21.20
2023-01-26T12:32:20.181Z,22.63
2023-01-26T12:33:21.913Z,24.70
2023-01-26T12:34:33.736Z,22.45
2023-01-26T12:36:22.864Z,21.65
2023-01-26T12:38:12.171Z,24.92
2023-01-26T12:39:53.701Z,21.88
2023-01-26T12:41:14.174Z,20.90
2023-01-26T12:42:43.375Z,23.67
2023-01-26T12:43:53.879Z,22.17
2023-01-26T12:45:02.151Z,23.63
2023-01-26T12:46:06.234Z,22.33
2023-01-26T12:47:25.702Z,22.90
2023-01-26T12:48:41.492Z,21.75
2023-01-26T12:50:02.002Z,22.50
2023-01-26T12:51:11.254Z,22.58
2023-01-26T12:53:32.168Z,21.75
2023-01-26T12:54:42.568Z,22.77
2023-01-26T12:55:57.501Z,21.42
2023-01-26T12:57:04.491Z,27.30
2023-01-26T12:58:14.684Z,27.10
2023-01-26T12:59:39.692Z,21.73
2023-01-26T13:00:52.341Z,25.60
2023-01-26T13:01:54.709Z,26.92
2023-01-26T13:03:05.219Z,25.85
2023-01-26T13:04:12.664Z,21.77
2023-01-26T13:05:29.858Z,23.98
2023-01-26T13:06:31.959Z,24.02
2023-01-26T13:07:39.281Z,24.25
2023-01-26T13:08:53.938Z,24.70
2023-01-26T13:10:14.466Z,24.42
2023-01-26T13:11:48.053Z,25.13
2023-01-26T13:12:58.548Z,25.05
2023-01-26T13:13:59.990Z,24.60
2023-01-26T13:15:06.535Z,25.02
2023-01-26T13:16:17.278Z,25.38
2023-01-26T13:17:23.916Z,23.10
2023-01-26T13:19:03.469Z,22.55
2023-01-26T13:20:22.073Z,25.05
2023-01-26T13:21:35.778Z,22.83
2023-01-26T13:22:40.166Z,24.23
2023-01-26T13:23:43.876Z,22.33
2023-01-26T13:24:48.824Z,22.38
2023-01-26T13:26:17.448Z,24.58
2023-01-26T13:27:37.776Z,22.98
2023-01-26T13:28:39.793Z,25.83
2023-01-26T13:29:55.346Z,23.85
2023-01-26T13:31:06.684Z,25.80
2023-01-26T13:32:13.871Z,24.55
2023-01-26T13:33:23.798Z,26.67
2023-01-26T13:34:37.200Z,25.70
2023-01-26T13:35:38.994Z,25.98
2023-01-26T13:36:45.812Z,24.55
2023-01-26T13:37:57.559Z,26.23
2023-01-26T13:39:04.196Z,25.67
2023-01-26T13:40:15.232Z,26.05
2023-01-26T13:41:20.957Z,24.17
2023-01-26T13:42:33.201Z,22.90
2023-01-26T13:43:40.331Z,25.23
2023-01-26T13:44:47.374Z,25.30
2023-01-26T13:46:23.746Z,25.23
2023-01-26T13:47:34.224Z,21.02
2023-01-26T13:48:46.244Z,24.17
2023-01-26T13:49:50.393Z,23.80
2023-01-26T13:50:52.058Z,25.48
2023-01-26T13:51:53.813Z,23.63
2023-01-26T13:52:55.339Z,23.42
2023-01-26T13:54:02.349Z,23.17
2023-01-26T13:55:12.889Z,23.83
2023-01-26T13:56:35.622Z,24.15
2023-01-26T13:57:37.103Z,23.10
2023-01-26T13:58:38.584Z,22.48
2023-01-26T13:59:54.228Z,20.98
2023-01-26T14:01:05.836Z,22.73
2023-01-26T14:02:20.857Z,24.10
2023-01-26T14:03:23.239Z,23.17
2023-01-26T14:04:29.132Z,22.88
2023-01-26T14:05:31.681Z,23.90
2023-01-26T14:06:36.540Z,23.83
2023-01-26T14:07:42.264Z,26.33
2023-01-26T14:08:55.849Z,28.02
2023-01-26T14:10:01.823Z,27.80
2023-01-26T14:11:14.522Z,25.17
2023-01-26T14:12:24.266Z,27.20
2023-01-26T14:13:38.917Z,24.70
2023-01-26T14:14:41.364Z,25.17
2023-01-26T14:15:42.874Z,36.22
2023-01-26T14:16:44.345Z,51.78
2023-01-26T14:17:52.802Z,83.53
2023-01-26T14:19:17.118Z,72.80
2023-01-26T14:20:31.461Z,57.83
2023-01-26T14:21:33.301Z,35.35
2023-01-26T14:22:34.868Z,32.60
2023-01-26T14:23:37.230Z,27.05
2023-01-26T14:24:41.213Z,27.77
2023-01-26T14:25:47.119Z,25.05